createdAt,value
2018-06-13T00:00:31.392Z,18.80
2018-06-13T00:03:35.768Z,18.80
2018-06-13T00:06:40.040Z,18.80
2018-06-13T00:09:44.497Z,18.70
2018-06-13T00:12:48.562Z,18.70
2018-06-13T00:18:56.540Z,18.80
2018-06-13T00:22:01.866Z,18.80
2018-06-13T00:25:06.624Z,18.80
2018-06-13T00:28:10.910Z,18.80
2018-06-13T00:31:15.239Z,18.80
2018-06-13T00:34:19.554Z,18.80
2018-06-13T00:37:23.891Z,18.80
2018-06-13T00:40:29.577Z,18.80
2018-06-13T00:43:33.677Z,18.70
2018-06-13T00:46:37.754Z,18.70
2018-06-13T00:49:41.943Z,18.60
2018-06-13T00:52:46.150Z,18.60
2018-06-13T00:56:01.427Z,18.60
2018-06-13T00:59:05.726Z,18.60
2018-06-13T01:02:10.100Z,18.60
2018-06-13T01:05:14.646Z,18.50
2018-06-13T01:08:19.104Z,18.50
2018-06-13T01:11:29.509Z,18.50
2018-06-13T01:14:33.850Z,18.50
2018-06-13T01:17:37.817Z,18.50
2018-06-13T01:20:41.680Z,18.50
2018-06-13T01:23:45.638Z,18.40
2018-06-13T01:26:49.487Z,18.40
2018-06-13T01:29:53.992Z,18.40
2018-06-13T01:32:58.286Z,18.40
2018-06-13T01:36:02.699Z,18.40
2018-06-13T01:39:07.959Z,18.40
2018-06-13T01:42:12.307Z,18.30
2018-06-13T01:45:16.601Z,18.40
2018-06-13T01:48:21.031Z,18.30
2018-06-13T01:51:25.298Z,18.20
2018-06-13T01:54:29.582Z,18.10
2018-06-13T01:57:33.936Z,18.10
2018-06-13T02:00:38.266Z,18.00
2018-06-13T02:03:42.649Z,18.00
2018-06-13T02:06:46.953Z,18.00
2018-06-13T02:09:51.305Z,18.00
2018-06-13T02:12:55.589Z,18.00
2018-06-13T02:16:01.370Z,18.00
2018-06-13T02:19:05.641Z,18.00
2018-06-13T02:22:09.930Z,18.00
2018-06-13T02:25:14.131Z,18.00
2018-06-13T02:28:18.415Z,18.00
2018-06-13T02:31:22.766Z,17.90
2018-06-13T02:34:27.218Z,18.00
2018-06-13T02:37:31.426Z,18.00
2018-06-13T02:40:35.777Z,17.90
2018-06-13T02:43:40.171Z,17.90
2018-06-13T02:46:44.525Z,17.90
2018-06-13T02:49:48.871Z,17.90
2018-06-13T02:52:53.103Z,17.80
2018-06-13T02:55:57.329Z,17.80
2018-06-13T02:59:01.954Z,17.70
2018-06-13T03:02:06.304Z,17.70
2018-06-13T03:05:10.793Z,17.70
2018-06-13T03:08:14.907Z,17.70
2018-06-13T03:11:19.250Z,17.80
2018-06-13T03:14:23.458Z,17.80
2018-06-13T03:17:27.721Z,17.80
2018-06-13T03:20:32.028Z,17.80
2018-06-13T03:23:36.415Z,17.80
2018-06-13T03:26:40.444Z,17.90
2018-06-13T03:29:44.622Z,17.80
2018-06-13T03:32:48.815Z,17.80
2018-06-13T03:35:53.132Z,17.80
2018-06-13T03:38:57.467Z,17.70
2018-06-13T03:42:01.756Z,17.70
2018-06-13T03:45:06.019Z,17.70
2018-06-13T03:48:10.322Z,17.60
2018-06-13T03:51:14.682Z,17.70
2018-06-13T03:54:18.904Z,17.80
2018-06-13T03:57:23.222Z,17.80
2018-06-13T04:00:27.419Z,17.80
2018-06-13T04:03:31.541Z,17.90
2018-06-13T04:06:35.788Z,18.00
2018-06-13T04:09:40.176Z,18.00
2018-06-13T04:12:44.520Z,18.10
2018-06-13T04:15:48.622Z,18.20
2018-06-13T04:18:52.749Z,18.30
2018-06-13T04:21:56.935Z,18.30
2018-06-13T04:25:01.258Z,18.40
2018-06-13T04:28:06.331Z,18.50
2018-06-13T04:31:10.503Z,18.50
2018-06-13T04:34:15.391Z,18.60
2018-06-13T04:37:19.587Z,18.60
2018-06-13T04:40:23.913Z,18.80
2018-06-13T04:43:28.154Z,18.80
2018-06-13T04:46:32.253Z,18.80
2018-06-13T04:49:36.634Z,18.80
2018-06-13T04:52:40.960Z,18.80
2018-06-13T04:55:45.335Z,18.90
2018-06-13T04:58:49.616Z,19.10
2018-06-13T05:01:54.068Z,19.20
2018-06-13T05:04:58.375Z,19.30
2018-06-13T05:08:02.744Z,19.50
2018-06-13T05:11:07.241Z,19.60
2018-06-13T05:14:11.698Z,19.70
2018-06-13T05:17:16.141Z,19.80
2018-06-13T05:20:20.512Z,20.00
2018-06-13T05:23:24.881Z,20.10
2018-06-13T05:26:29.282Z,20.20
2018-06-13T05:29:33.553Z,20.30
2018-06-13T05:32:37.734Z,20.30
2018-06-13T05:35:42.247Z,20.50
2018-06-13T05:38:46.422Z,20.70
2018-06-13T05:41:50.791Z,20.80
2018-06-13T05:44:55.091Z,21.00
2018-06-13T05:48:00.038Z,21.00
2018-06-13T05:51:04.316Z,21.10
2018-06-13T05:54:08.617Z,21.10
2018-06-13T05:57:12.975Z,21.10
2018-06-13T06:00:17.332Z,21.10
2018-06-13T06:03:21.605Z,21.10
2018-06-13T06:06:26.067Z,21.30
2018-06-13T06:09:30.358Z,21.50
2018-06-13T06:12:34.536Z,21.90
2018-06-13T06:15:38.858Z,22.40
2018-06-13T06:18:43.000Z,22.80
2018-06-13T06:21:47.476Z,23.40
2018-06-13T06:24:51.704Z,23.90
2018-06-13T06:27:55.873Z,24.10
2018-06-13T06:31:00.461Z,24.40
2018-06-13T06:34:04.771Z,24.90
2018-06-13T06:37:09.096Z,25.30
2018-06-13T06:40:13.215Z,25.50
2018-06-13T06:43:17.529Z,25.70
2018-06-13T06:46:21.757Z,26.20
2018-06-13T06:49:26.055Z,27.10
2018-06-13T06:52:30.662Z,28.10
2018-06-13T06:55:34.992Z,28.50
2018-06-13T06:58:39.342Z,28.90
2018-06-13T07:01:43.710Z,29.40
2018-06-13T07:04:48.016Z,29.40
2018-06-13T07:07:52.352Z,28.90
2018-06-13T07:10:56.743Z,28.10
2018-06-13T07:14:01.143Z,27.60
2018-06-13T07:17:05.422Z,27.10
2018-06-13T07:20:09.792Z,26.70
2018-06-13T07:23:14.036Z,26.20
2018-06-13T07:26:18.317Z,25.90
2018-06-13T07:29:22.670Z,25.60
2018-06-13T07:32:26.873Z,25.70
2018-06-13T07:35:31.260Z,26.60
2018-06-13T07:38:35.710Z,27.80
2018-06-13T07:41:39.844Z,28.80
2018-06-13T07:44:44.159Z,29.40
2018-06-13T07:47:49.466Z,29.40
2018-06-13T07:50:53.685Z,29.40
2018-06-13T07:53:57.887Z,29.60
2018-06-13T07:57:02.060Z,29.20
2018-06-13T08:00:06.368Z,29.10
2018-06-13T08:03:10.655Z,29.00
2018-06-13T08:06:14.869Z,29.20
2018-06-13T08:09:19.034Z,29.20
2018-06-13T08:12:23.348Z,28.70
2018-06-13T08:15:33.779Z,28.50
2018-06-13T08:18:38.250Z,28.20
2018-06-13T08:21:42.623Z,27.70
2018-06-13T08:24:54.923Z,27.50
2018-06-13T08:27:59.288Z,27.60
2018-06-13T08:31:03.762Z,28.00
2018-06-13T08:34:07.747Z,27.90
2018-06-13T08:37:12.234Z,27.50
2018-06-13T08:40:16.755Z,27.40
2018-06-13T08:43:21.114Z,27.50
2018-06-13T08:46:25.477Z,27.50
2018-06-13T08:49:29.759Z,27.20
2018-06-13T08:52:34.242Z,26.80
2018-06-13T08:55:38.399Z,27.10
2018-06-13T08:58:42.743Z,27.40
2018-06-13T09:01:47.064Z,27.70
2018-06-13T09:04:51.568Z,27.80
2018-06-13T09:07:55.519Z,27.80
2018-06-13T09:10:59.450Z,27.50
2018-06-13T09:14:03.632Z,27.50
2018-06-13T09:17:07.994Z,27.80
2018-06-13T09:20:11.878Z,27.70
2018-06-13T09:23:15.770Z,27.70
2018-06-13T09:26:19.998Z,27.90
2018-06-13T09:29:23.871Z,27.70
2018-06-13T09:32:28.041Z,28.00
2018-06-13T09:35:32.450Z,28.00
2018-06-13T09:38:36.727Z,28.30
2018-06-13T09:41:46.169Z,28.00
2018-06-13T09:44:50.474Z,28.00
2018-06-13T09:47:54.940Z,28.10
2018-06-13T09:50:59.126Z,28.00
2018-06-13T09:54:03.044Z,27.90
2018-06-13T09:57:06.957Z,28.00
2018-06-13T10:00:16.160Z,28.20
2018-06-13T10:03:20.090Z,28.20
2018-06-13T10:06:24.122Z,28.20
2018-06-13T10:09:28.424Z,28.70
2018-06-13T10:12:32.779Z,28.80
2018-06-13T10:15:37.023Z,28.80
2018-06-13T10:21:44.830Z,28.50
2018-06-13T10:24:49.350Z,28.50
2018-06-13T10:27:53.565Z,28.70
2018-06-13T10:30:58.090Z,28.80
2018-06-13T10:34:02.317Z,28.80
2018-06-13T10:37:06.782Z,28.50
2018-06-13T10:40:11.079Z,28.10
2018-06-13T10:43:15.029Z,28.00
2018-06-13T10:46:18.930Z,28.20
2018-06-13T10:49:22.854Z,28.50
2018-06-13T10:52:27.165Z,28.90
2018-06-13T10:55:31.658Z,29.00
2018-06-13T10:58:36.320Z,29.30
2018-06-13T11:01:40.539Z,29.30
2018-06-13T11:04:44.900Z,29.30
2018-06-13T11:07:49.141Z,29.30
2018-06-13T11:10:53.493Z,29.10
2018-06-13T11:13:57.912Z,29.20
2018-06-13T11:17:02.140Z,29.00
2018-06-13T11:20:06.643Z,29.10
2018-06-13T11:23:10.849Z,28.40
2018-06-13T11:26:15.208Z,28.40
2018-06-13T11:29:19.511Z,28.50
2018-06-13T11:32:23.651Z,28.80
2018-06-13T11:35:28.002Z,29.00
2018-06-13T11:38:31.877Z,28.90
2018-06-13T11:41:36.771Z,28.60
2018-06-13T11:44:41.332Z,28.40
2018-06-13T11:47:45.819Z,28.20
2018-06-13T11:50:50.342Z,28.10
2018-06-13T11:53:54.627Z,28.20
2018-06-13T11:56:59.131Z,28.50
2018-06-13T12:00:03.525Z,28.80
2018-06-13T12:03:07.470Z,28.80
2018-06-13T12:06:11.531Z,28.80
2018-06-13T12:09:15.839Z,28.60
2018-06-13T12:12:20.150Z,28.20
2018-06-13T12:15:24.044Z,28.20
2018-06-13T12:18:28.281Z,28.40
2018-06-13T12:21:32.552Z,28.50
2018-06-13T12:24:36.562Z,28.30
2018-06-13T12:27:40.461Z,28.00
2018-06-13T12:30:44.325Z,28.20
2018-06-13T12:33:48.742Z,28.30
2018-06-13T12:36:53.026Z,28.40
2018-06-13T12:39:57.585Z,28.50
2018-06-13T12:43:02.057Z,28.30
2018-06-13T12:46:07.270Z,28.50
2018-06-13T12:49:11.735Z,28.20
2018-06-13T12:52:15.896Z,28.10
2018-06-13T12:55:20.014Z,28.20
2018-06-13T12:58:24.740Z,28.40
2018-06-13T13:01:29.786Z,28.60
2018-06-13T13:04:34.116Z,29.00
2018-06-13T13:07:38.346Z,29.10
2018-06-13T13:10:42.714Z,29.20
2018-06-13T13:13:47.009Z,28.80
2018-06-13T13:16:51.355Z,28.50
2018-06-13T13:19:55.791Z,28.20
2018-06-13T13:22:59.973Z,27.90
2018-06-13T13:26:04.361Z,27.30
2018-06-13T13:29:08.475Z,27.10
2018-06-13T13:32:12.907Z,27.00
2018-06-13T13:35:17.111Z,26.40
2018-06-13T13:38:21.406Z,26.10
2018-06-13T13:41:25.908Z,26.10
2018-06-13T13:44:30.417Z,26.00
2018-06-13T13:47:34.981Z,26.10
2018-06-13T13:50:39.329Z,26.10
2018-06-13T13:53:43.849Z,26.10
2018-06-13T13:56:48.133Z,26.10
2018-06-13T13:59:52.304Z,25.90
2018-06-13T14:02:56.704Z,25.80
2018-06-13T14:06:00.853Z,25.50
2018-06-13T14:09:06.807Z,25.30
2018-06-13T14:12:11.187Z,25.30
2018-06-13T14:15:15.807Z,25.00
2018-06-13T14:21:23.663Z,24.10
2018-06-13T14:24:27.926Z,23.50
2018-06-13T14:27:32.313Z,23.00
2018-06-13T14:30:36.644Z,22.70
2018-06-13T14:33:40.915Z,22.40
2018-06-13T14:36:45.181Z,22.10
2018-06-13T14:39:49.480Z,21.70
2018-06-13T14:42:53.883Z,21.30
2018-06-13T14:45:58.134Z,20.90
2018-06-13T14:49:02.700Z,20.80
2018-06-13T14:52:07.251Z,20.40
2018-06-13T14:55:11.499Z,20.10
2018-06-13T14:58:16.286Z,19.90
2018-06-13T15:01:20.597Z,19.80
2018-06-13T15:04:31.519Z,19.50
2018-06-13T15:07:35.824Z,19.40
2018-06-13T15:10:39.818Z,19.20
2018-06-13T15:13:43.758Z,19.30
2018-06-13T15:16:47.844Z,19.40
2018-06-13T15:19:51.815Z,19.60
2018-06-13T15:22:56.181Z,19.80
2018-06-13T15:26:00.666Z,19.80
2018-06-13T15:29:05.104Z,19.90
2018-06-13T15:32:09.144Z,19.90
2018-06-13T15:35:13.540Z,19.90
2018-06-13T15:38:17.963Z,19.90
2018-06-13T15:41:22.520Z,19.90
2018-06-13T15:44:27.032Z,19.90
2018-06-13T15:47:31.406Z,20.00
2018-06-13T15:53:39.652Z,20.10
2018-06-13T15:59:47.578Z,20.20
2018-06-13T16:02:51.943Z,20.20
2018-06-13T16:05:56.461Z,20.20
2018-06-13T16:09:00.941Z,20.20
2018-06-13T16:12:05.181Z,20.20
2018-06-13T16:15:09.707Z,20.20
2018-06-13T16:18:14.405Z,20.20
2018-06-13T16:21:18.783Z,19.90
2018-06-13T16:24:22.857Z,19.90
2018-06-13T16:27:26.851Z,19.80
2018-06-13T16:30:31.234Z,19.80
2018-06-13T16:33:35.194Z,19.80
2018-06-13T16:36:39.245Z,19.70
2018-06-13T16:39:43.336Z,19.70
2018-06-13T16:42:47.402Z,19.70
2018-06-13T16:45:51.437Z,19.70
2018-06-13T16:48:55.439Z,19.80
2018-06-13T16:51:59.502Z,19.80
2018-06-13T16:55:20.205Z,19.90
2018-06-13T16:58:24.226Z,19.90
2018-06-13T17:01:28.184Z,20.00
2018-06-13T17:04:32.277Z,20.00
2018-06-13T17:07:36.229Z,20.10
2018-06-13T17:10:40.189Z,20.20
2018-06-13T17:13:44.201Z,20.10
2018-06-13T17:16:48.243Z,20.00
2018-06-13T17:19:52.326Z,20.00
2018-06-13T17:22:56.345Z,20.10
2018-06-13T17:26:00.535Z,20.20
2018-06-13T17:29:04.674Z,20.20
2018-06-13T17:32:08.688Z,20.20
2018-06-13T17:35:12.602Z,20.10
2018-06-13T17:38:16.993Z,19.90
2018-06-13T17:41:21.122Z,19.80
2018-06-13T17:44:25.540Z,19.80
2018-06-13T17:47:29.810Z,19.80
2018-06-13T17:50:34.122Z,19.80
2018-06-13T17:53:38.509Z,19.70
2018-06-13T17:56:42.858Z,19.80
2018-06-13T17:59:47.219Z,19.90
2018-06-13T18:02:51.844Z,19.80
2018-06-13T18:05:56.230Z,19.70
2018-06-13T18:09:01.264Z,19.70
2018-06-13T18:12:05.427Z,19.60
2018-06-13T18:15:09.490Z,19.50
2018-06-13T18:18:13.976Z,19.40
2018-06-13T18:21:18.702Z,19.40
2018-06-13T18:24:23.211Z,19.50
2018-06-13T18:27:27.970Z,19.50
2018-06-13T18:30:31.954Z,19.50
2018-06-13T18:33:36.069Z,19.50
2018-06-13T18:36:40.528Z,19.50
2018-06-13T18:39:44.960Z,19.50
2018-06-13T18:42:49.316Z,19.50
2018-06-13T18:45:53.902Z,19.50
2018-06-13T18:48:58.494Z,19.50
2018-06-13T18:52:02.800Z,19.50
2018-06-13T18:55:07.081Z,19.50
2018-06-13T18:58:11.510Z,19.60
2018-06-13T19:01:15.788Z,19.50
2018-06-13T19:04:20.110Z,19.40
2018-06-13T19:07:24.347Z,19.40
2018-06-13T19:10:29.025Z,19.40
2018-06-13T19:13:33.615Z,19.40
2018-06-13T19:16:37.889Z,19.50
2018-06-13T19:19:42.395Z,19.50
2018-06-13T19:22:47.785Z,19.50
2018-06-13T19:25:52.152Z,19.60
2018-06-13T19:28:56.416Z,19.60
2018-06-13T19:32:01.204Z,19.60
2018-06-13T19:35:05.633Z,19.70
2018-06-13T19:38:10.313Z,19.70
2018-06-13T19:41:15.676Z,19.60
2018-06-13T19:44:20.428Z,19.60
2018-06-13T19:47:29.997Z,19.40
2018-06-13T19:50:34.515Z,19.40
2018-06-13T19:53:44.289Z,19.50
2018-06-13T19:56:48.394Z,19.60
2018-06-13T19:59:55.259Z,19.60
2018-06-13T20:03:04.669Z,19.50
2018-06-13T20:06:09.533Z,19.50
2018-06-13T20:09:13.933Z,19.50
2018-06-13T20:12:55.928Z,19.40
2018-06-13T20:16:05.623Z,19.40
2018-06-13T20:19:15.066Z,19.30
2018-06-13T20:22:19.370Z,19.30
2018-06-13T20:25:28.663Z,19.30
2018-06-13T20:28:38.107Z,19.30
2018-06-13T20:31:44.579Z,19.40
2018-06-13T20:34:49.068Z,19.30
2018-06-13T20:37:53.410Z,19.30
2018-06-13T20:40:57.801Z,19.30
2018-06-13T20:44:02.169Z,19.40
2018-06-13T20:47:06.667Z,19.40
2018-06-13T20:50:10.994Z,19.40
2018-06-13T20:53:15.229Z,19.40
2018-06-13T20:56:19.619Z,19.40
2018-06-13T20:59:23.855Z,19.40
2018-06-13T21:02:28.314Z,19.50
2018-06-13T21:05:32.666Z,19.40
2018-06-13T21:08:37.015Z,19.40
2018-06-13T21:11:41.497Z,19.40
2018-06-13T21:14:46.082Z,19.40
2018-06-13T21:17:50.386Z,19.40
2018-06-13T21:20:54.802Z,19.40
2018-06-13T21:23:59.078Z,19.50
2018-06-13T21:27:03.892Z,19.50
2018-06-13T21:30:08.491Z,19.50
2018-06-13T21:33:12.974Z,19.50
2018-06-13T21:36:17.185Z,19.40
2018-06-13T21:39:21.495Z,19.40
2018-06-13T21:42:25.854Z,19.40
2018-06-13T21:45:29.837Z,19.40
2018-06-13T21:48:33.835Z,19.40
2018-06-13T21:51:37.787Z,19.40
2018-06-13T21:54:42.082Z,19.30
2018-06-13T21:57:46.317Z,19.30
2018-06-13T22:00:50.572Z,19.30
2018-06-13T22:03:54.863Z,19.30
2018-06-13T22:06:59.131Z,19.20
2018-06-13T22:10:03.542Z,19.20
2018-06-13T22:16:11.524Z,19.10
2018-06-13T22:19:15.754Z,19.10
2018-06-13T22:22:20.076Z,19.10
2018-06-13T22:25:24.213Z,19.00
2018-06-13T22:28:28.629Z,18.90
2018-06-13T22:31:32.953Z,18.90
2018-06-13T22:34:36.922Z,18.80
2018-06-13T22:37:41.012Z,18.80
2018-06-13T22:43:48.506Z,18.70
2018-06-13T22:46:52.589Z,18.80
2018-06-13T22:49:56.589Z,18.80
2018-06-13T22:53:00.550Z,18.70
2018-06-13T22:56:04.510Z,18.60
2018-06-13T22:59:08.408Z,18.60
2018-06-13T23:05:16.030Z,18.60
2018-06-13T23:08:20.058Z,18.70
2018-06-13T23:11:24.488Z,18.70
2018-06-13T23:14:28.693Z,18.80
2018-06-13T23:17:32.970Z,18.90
2018-06-13T23:20:37.254Z,18.90
2018-06-13T23:23:42.346Z,18.80
2018-06-13T23:26:46.628Z,18.90
2018-06-13T23:29:50.570Z,18.80
2018-06-13T23:32:54.566Z,18.80
2018-06-13T23:35:58.510Z,18.80
2018-06-13T23:39:02.512Z,18.90
2018-06-13T23:42:07.125Z,18.90
2018-06-13T23:45:11.414Z,18.90
2018-06-13T23:48:20.084Z,18.90
2018-06-13T23:51:24.786Z,19.00
2018-06-13T23:54:29.207Z,18.90
2018-06-13T23:57:33.710Z,18.90
